sensor_id;sensor_type;location;lat;lon;timestamp;P1;durP1;ratioP1;P2;durP2;ratioP2
34019;SDS011;20895;51.034;3.742;2022-12-18T00:01:01;88.30;;;54.58;;
34019;SDS011;20895;51.034;3.742;2022-12-18T00:03:31;92.10;;;57.05;;
34019;SDS011;20895;51.034;3.742;2022-12-18T00:05:56;94.55;;;58.47;;
34019;SDS011;20895;51.034;3.742;2022-12-18T00:08:21;98.55;;;57.72;;
34019;SDS011;20895;51.034;3.742;2022-12-18T00:10:46;91.35;;;55.90;;
34019;SDS011;20895;51.034;3.742;2022-12-18T00:13:12;87.50;;;53.13;;
34019;SDS011;20895;51.034;3.742;2022-12-18T00:15:38;87.80;;;56.25;;
34019;SDS011;20895;51.034;3.742;2022-12-18T00:18:03;89.07;;;53.17;;
34019;SDS011;20895;51.034;3.742;2022-12-18T00:20:29;88.50;;;54.92;;
34019;SDS011;20895;51.034;3.742;2022-12-18T00:22:54;87.43;;;53.60;;
34019;SDS011;20895;51.034;3.742;2022-12-18T00:25:20;90.03;;;53.63;;
34019;SDS011;20895;51.034;3.742;2022-12-18T00:27:45;79.20;;;49.95;;
34019;SDS011;20895;51.034;3.742;2022-12-18T00:30:11;85.10;;;47.63;;
34019;SDS011;20895;51.034;3.742;2022-12-18T00:32:37;97.05;;;50.83;;
34019;SDS011;20895;51.034;3.742;2022-12-18T00:35:02;89.03;;;48.85;;
34019;SDS011;20895;51.034;3.742;2022-12-18T00:37:28;83.57;;;47.40;;
34019;SDS011;20895;51.034;3.742;2022-12-18T00:39:53;80.32;;;46.53;;
34019;SDS011;20895;51.034;3.742;2022-12-18T00:42:19;79.60;;;48.72;;
34019;SDS011;20895;51.034;3.742;2022-12-18T00:45:03;82.45;;;48.13;;
34019;SDS011;20895;51.034;3.742;2022-12-18T00:47:28;84.38;;;48.85;;
34019;SDS011;20895;51.034;3.742;2022-12-18T00:49:53;85.20;;;49.50;;
34019;SDS011;20895;51.034;3.742;2022-12-18T00:52:18;86.18;;;50.67;;
34019;SDS011;20895;51.034;3.742;2022-12-18T00:54:44;76.00;;;45.42;;
34019;SDS011;20895;51.034;3.742;2022-12-18T00:57:09;73.05;;;44.15;;
34019;SDS011;20895;51.034;3.742;2022-12-18T00:59:34;79.15;;;45.58;;
34019;SDS011;20895;51.034;3.742;2022-12-18T01:01:59;82.05;;;45.90;;
34019;SDS011;20895;51.034;3.742;2022-12-18T01:04:25;81.93;;;44.85;;
34019;SDS011;20895;51.034;3.742;2022-12-18T01:06:50;78.30;;;43.33;;
34019;SDS011;20895;51.034;3.742;2022-12-18T01:09:15;84.95;;;46.78;;
34019;SDS011;20895;51.034;3.742;2022-12-18T01:11:40;72.97;;;43.42;;
34019;SDS011;20895;51.034;3.742;2022-12-18T01:14:06;78.88;;;45.50;;
34019;SDS011;20895;51.034;3.742;2022-12-18T01:16:31;75.97;;;44.85;;
34019;SDS011;20895;51.034;3.742;2022-12-18T01:18:56;73.93;;;42.97;;
34019;SDS011;20895;51.034;3.742;2022-12-18T01:21:22;75.45;;;43.72;;
34019;SDS011;20895;51.034;3.742;2022-12-18T01:23:50;77.50;;;42.17;;
34019;SDS011;20895;51.034;3.742;2022-12-18T01:26:16;75.15;;;43.53;;
34019;SDS011;20895;51.034;3.742;2022-12-18T01:28:41;69.68;;;39.38;;
34019;SDS011;20895;51.034;3.742;2022-12-18T01:31:17;67.70;;;39.65;;
34019;SDS011;20895;51.034;3.742;2022-12-18T01:33:46;71.32;;;39.33;;
34019;SDS011;20895;51.034;3.742;2022-12-18T01:36:15;75.68;;;40.70;;
34019;SDS011;20895;51.034;3.742;2022-12-18T01:38:41;70.80;;;38.97;;
34019;SDS011;20895;51.034;3.742;2022-12-18T01:41:08;68.20;;;38.67;;
34019;SDS011;20895;51.034;3.742;2022-12-18T01:46:25;62.92;;;36.17;;
34019;SDS011;20895;51.034;3.742;2022-12-18T01:48:52;70.78;;;35.60;;
34019;SDS011;20895;51.034;3.742;2022-12-18T01:51:18;62.65;;;35.45;;
34019;SDS011;20895;51.034;3.742;2022-12-18T01:53:43;61.45;;;34.78;;
34019;SDS011;20895;51.034;3.742;2022-12-18T01:56:11;61.60;;;34.20;;
34019;SDS011;20895;51.034;3.742;2022-12-18T01:58:58;61.80;;;36.57;;
34019;SDS011;20895;51.034;3.742;2022-12-18T02:01:25;65.90;;;33.88;;
34019;SDS011;20895;51.034;3.742;2022-12-18T02:03:50;62.60;;;33.75;;
34019;SDS011;20895;51.034;3.742;2022-12-18T02:06:19;59.58;;;32.58;;
34019;SDS011;20895;51.034;3.742;2022-12-18T02:16:44;58.97;;;33.03;;
34019;SDS011;20895;51.034;3.742;2022-12-18T02:21:55;62.20;;;32.22;;
34019;SDS011;20895;51.034;3.742;2022-12-18T02:26:50;54.25;;;31.42;;
34019;SDS011;20895;51.034;3.742;2022-12-18T02:29:21;53.17;;;31.30;;
34019;SDS011;20895;51.034;3.742;2022-12-18T02:31:49;55.67;;;32.95;;
34019;SDS011;20895;51.034;3.742;2022-12-18T02:34:16;58.67;;;32.45;;
34019;SDS011;20895;51.034;3.742;2022-12-18T02:36:42;55.33;;;30.88;;
34019;SDS011;20895;51.034;3.742;2022-12-18T02:39:09;63.15;;;32.75;;
34019;SDS011;20895;51.034;3.742;2022-12-18T02:41:35;50.67;;;29.95;;
34019;SDS011;20895;51.034;3.742;2022-12-18T02:44:02;54.10;;;30.88;;
34019;SDS011;20895;51.034;3.742;2022-12-18T02:46:35;55.53;;;31.90;;
34019;SDS011;20895;51.034;3.742;2022-12-18T02:51:50;53.63;;;29.90;;
34019;SDS011;20895;51.034;3.742;2022-12-18T02:57:05;51.38;;;30.60;;
34019;SDS011;20895;51.034;3.742;2022-12-18T02:59:38;58.67;;;32.22;;
34019;SDS011;20895;51.034;3.742;2022-12-18T03:02:17;50.28;;;29.55;;
34019;SDS011;20895;51.034;3.742;2022-12-18T03:04:47;51.53;;;30.40;;
34019;SDS011;20895;51.034;3.742;2022-12-18T03:07:23;47.55;;;28.00;;
34019;SDS011;20895;51.034;3.742;2022-12-18T03:09:50;55.70;;;30.88;;
34019;SDS011;20895;51.034;3.742;2022-12-18T03:12:28;48.28;;;28.80;;
34019;SDS011;20895;51.034;3.742;2022-12-18T03:17:20;51.72;;;28.60;;
34019;SDS011;20895;51.034;3.742;2022-12-18T03:19:47;46.03;;;25.58;;
34019;SDS011;20895;51.034;3.742;2022-12-18T03:22:14;48.67;;;28.25;;
34019;SDS011;20895;51.034;3.742;2022-12-18T03:24:41;49.33;;;28.08;;
34019;SDS011;20895;51.034;3.742;2022-12-18T03:27:07;48.88;;;26.48;;
34019;SDS011;20895;51.034;3.742;2022-12-18T03:29:41;45.75;;;24.88;;
34019;SDS011;20895;51.034;3.742;2022-12-18T03:32:08;50.15;;;27.42;;
34019;SDS011;20895;51.034;3.742;2022-12-18T03:34:35;44.92;;;26.88;;
34019;SDS011;20895;51.034;3.742;2022-12-18T03:37:03;49.38;;;26.38;;
34019;SDS011;20895;51.034;3.742;2022-12-18T03:39:28;45.38;;;25.48;;
34019;SDS011;20895;51.034;3.742;2022-12-18T03:44:45;46.00;;;27.13;;
34019;SDS011;20895;51.034;3.742;2022-12-18T03:47:17;46.35;;;26.13;;
34019;SDS011;20895;51.034;3.742;2022-12-18T03:49:59;45.70;;;25.38;;
34019;SDS011;20895;51.034;3.742;2022-12-18T03:54:54;43.25;;;23.83;;
34019;SDS011;20895;51.034;3.742;2022-12-18T03:57:20;42.63;;;23.40;;
34019;SDS011;20895;51.034;3.742;2022-12-18T03:59:47;43.83;;;25.02;;
34019;SDS011;20895;51.034;3.742;2022-12-18T04:02:14;42.80;;;23.67;;
34019;SDS011;20895;51.034;3.742;2022-12-18T04:04:41;39.80;;;23.08;;
34019;SDS011;20895;51.034;3.742;2022-12-18T04:07:07;42.65;;;23.83;;
34019;SDS011;20895;51.034;3.742;2022-12-18T04:09:33;42.80;;;24.58;;
34019;SDS011;20895;51.034;3.742;2022-12-18T04:11:59;41.13;;;23.63;;
34019;SDS011;20895;51.034;3.742;2022-12-18T04:14:24;44.35;;;24.23;;
34019;SDS011;20895;51.034;3.742;2022-12-18T04:16:49;37.70;;;22.15;;
34019;SDS011;20895;51.034;3.742;2022-12-18T04:19:15;39.80;;;23.20;;
34019;SDS011;20895;51.034;3.742;2022-12-18T04:21:40;43.95;;;24.02;;
34019;SDS011;20895;51.034;3.742;2022-12-18T04:24:05;41.88;;;24.38;;
34019;SDS011;20895;51.034;3.742;2022-12-18T04:26:30;40.58;;;23.42;;
34019;SDS011;20895;51.034;3.742;2022-12-18T04:28:56;39.85;;;21.23;;
34019;SDS011;20895;51.034;3.742;2022-12-18T04:31:21;44.58;;;23.92;;
34019;SDS011;20895;51.034;3.742;2022-12-18T04:33:50;42.78;;;24.95;;
34019;SDS011;20895;51.034;3.742;2022-12-18T04:36:15;43.28;;;23.88;;
34019;SDS011;20895;51.034;3.742;2022-12-18T04:38:40;38.60;;;23.67;;
34019;SDS011;20895;51.034;3.742;2022-12-18T04:41:05;46.17;;;26.15;;
34019;SDS011;20895;51.034;3.742;2022-12-18T04:43:32;46.47;;;23.80;;
34019;SDS011;20895;51.034;3.742;2022-12-18T04:46:01;46.90;;;23.27;;
34019;SDS011;20895;51.034;3.742;2022-12-18T04:48:26;43.30;;;22.65;;
34019;SDS011;20895;51.034;3.742;2022-12-18T04:50:52;43.65;;;23.42;;
34019;SDS011;20895;51.034;3.742;2022-12-18T04:53:17;43.30;;;20.35;;
34019;SDS011;20895;51.034;3.742;2022-12-18T04:55:42;40.72;;;22.10;;
34019;SDS011;20895;51.034;3.742;2022-12-18T04:58:07;41.38;;;22.52;;
34019;SDS011;20895;51.034;3.742;2022-12-18T05:00:33;46.15;;;23.20;;
34019;SDS011;20895;51.034;3.742;2022-12-18T05:03:00;40.13;;;23.35;;
34019;SDS011;20895;51.034;3.742;2022-12-18T05:05:25;40.60;;;21.73;;
34019;SDS011;20895;51.034;3.742;2022-12-18T05:07:50;42.30;;;24.60;;
34019;SDS011;20895;51.034;3.742;2022-12-18T05:10:16;41.13;;;23.23;;
34019;SDS011;20895;51.034;3.742;2022-12-18T05:12:41;45.60;;;22.95;;
34019;SDS011;20895;51.034;3.742;2022-12-18T05:15:23;41.85;;;23.40;;
34019;SDS011;20895;51.034;3.742;2022-12-18T05:17:48;42.47;;;24.10;;
34019;SDS011;20895;51.034;3.742;2022-12-18T05:20:13;42.53;;;23.23;;
34019;SDS011;20895;51.034;3.742;2022-12-18T05:22:38;35.90;;;21.63;;
34019;SDS011;20895;51.034;3.742;2022-12-18T05:25:04;40.83;;;23.17;;
34019;SDS011;20895;51.034;3.742;2022-12-18T05:27:29;41.55;;;23.58;;
34019;SDS011;20895;51.034;3.742;2022-12-18T05:29:54;41.15;;;22.55;;
34019;SDS011;20895;51.034;3.742;2022-12-18T05:32:20;42.35;;;23.40;;
34019;SDS011;20895;51.034;3.742;2022-12-18T05:34:45;41.67;;;22.02;;
34019;SDS011;20895;51.034;3.742;2022-12-18T05:37:10;38.22;;;22.02;;
34019;SDS011;20895;51.034;3.742;2022-12-18T05:39:35;38.53;;;23.50;;
34019;SDS011;20895;51.034;3.742;2022-12-18T05:42:00;41.55;;;22.67;;
34019;SDS011;20895;51.034;3.742;2022-12-18T05:44:26;46.40;;;24.13;;
34019;SDS011;20895;51.034;3.742;2022-12-18T05:46:51;40.95;;;23.02;;
34019;SDS011;20895;51.034;3.742;2022-12-18T05:49:20;46.17;;;25.25;;
34019;SDS011;20895;51.034;3.742;2022-12-18T05:51:45;42.58;;;24.80;;
34019;SDS011;20895;51.034;3.742;2022-12-18T05:54:11;45.70;;;23.77;;
34019;SDS011;20895;51.034;3.742;2022-12-18T05:56:36;45.60;;;24.55;;
34019;SDS011;20895;51.034;3.742;2022-12-18T05:59:01;40.80;;;23.77;;
34019;SDS011;20895;51.034;3.742;2022-12-18T06:01:26;41.95;;;23.05;;
34019;SDS011;20895;51.034;3.742;2022-12-18T06:03:52;36.17;;;21.20;;
34019;SDS011;20895;51.034;3.742;2022-12-18T06:06:21;39.15;;;21.60;;
34019;SDS011;20895;51.034;3.742;2022-12-18T06:08:47;35.10;;;21.02;;
34019;SDS011;20895;51.034;3.742;2022-12-18T06:11:13;42.92;;;22.02;;
34019;SDS011;20895;51.034;3.742;2022-12-18T06:13:40;36.90;;;21.20;;
34019;SDS011;20895;51.034;3.742;2022-12-18T06:16:06;36.60;;;20.80;;
34019;SDS011;20895;51.034;3.742;2022-12-18T06:18:35;37.83;;;20.35;;
34019;SDS011;20895;51.034;3.742;2022-12-18T06:21:02;40.42;;;21.92;;
34019;SDS011;20895;51.034;3.742;2022-12-18T06:23:27;34.63;;;21.48;;
34019;SDS011;20895;51.034;3.742;2022-12-18T06:25:53;33.30;;;20.55;;
34019;SDS011;20895;51.034;3.742;2022-12-18T06:28:18;35.70;;;21.25;;
34019;SDS011;20895;51.034;3.742;2022-12-18T06:30:43;37.08;;;20.95;;
34019;SDS011;20895;51.034;3.742;2022-12-18T06:33:09;34.92;;;20.48;;
34019;SDS011;20895;51.034;3.742;2022-12-18T06:35:34;34.85;;;19.80;;
34019;SDS011;20895;51.034;3.742;2022-12-18T06:38:01;39.67;;;20.65;;
34019;SDS011;20895;51.034;3.742;2022-12-18T06:40:26;33.40;;;20.35;;
34019;SDS011;20895;51.034;3.742;2022-12-18T06:42:51;38.97;;;19.75;;
34019;SDS011;20895;51.034;3.742;2022-12-18T06:45:17;34.05;;;20.05;;
34019;SDS011;20895;51.034;3.742;2022-12-18T06:47:42;35.40;;;18.38;;
34019;SDS011;20895;51.034;3.742;2022-12-18T06:50:07;34.33;;;18.90;;
34019;SDS011;20895;51.034;3.742;2022-12-18T06:52:33;35.40;;;19.52;;
34019;SDS011;20895;51.034;3.742;2022-12-18T06:54:59;37.13;;;19.92;;
34019;SDS011;20895;51.034;3.742;2022-12-18T06:57:24;33.15;;;19.60;;
34019;SDS011;20895;51.034;3.742;2022-12-18T06:59:50;31.10;;;18.42;;
34019;SDS011;20895;51.034;3.742;2022-12-18T07:02:15;34.28;;;18.63;;
34019;SDS011;20895;51.034;3.742;2022-12-18T07:04:41;35.90;;;20.58;;
34019;SDS011;20895;51.034;3.742;2022-12-18T07:07:06;28.42;;;18.02;;
34019;SDS011;20895;51.034;3.742;2022-12-18T07:09:31;36.85;;;19.33;;
34019;SDS011;20895;51.034;3.742;2022-12-18T07:11:56;33.95;;;19.42;;
34019;SDS011;20895;51.034;3.742;2022-12-18T07:14:22;33.85;;;19.50;;
34019;SDS011;20895;51.034;3.742;2022-12-18T07:16:47;26.88;;;16.85;;
34019;SDS011;20895;51.034;3.742;2022-12-18T07:19:12;36.40;;;19.92;;
34019;SDS011;20895;51.034;3.742;2022-12-18T07:21:37;32.38;;;19.73;;
34019;SDS011;20895;51.034;3.742;2022-12-18T07:24:03;32.05;;;19.00;;
34019;SDS011;20895;51.034;3.742;2022-12-18T07:26:28;30.55;;;17.38;;
34019;SDS011;20895;51.034;3.742;2022-12-18T07:28:54;31.98;;;18.20;;
34019;SDS011;20895;51.034;3.742;2022-12-18T07:31:23;29.40;;;18.52;;
34019;SDS011;20895;51.034;3.742;2022-12-18T07:33:49;27.85;;;18.48;;
34019;SDS011;20895;51.034;3.742;2022-12-18T07:36:14;34.88;;;18.63;;
34019;SDS011;20895;51.034;3.742;2022-12-18T07:38:40;29.42;;;18.55;;
34019;SDS011;20895;51.034;3.742;2022-12-18T07:41:06;34.80;;;17.63;;
34019;SDS011;20895;51.034;3.742;2022-12-18T07:43:32;33.75;;;19.23;;
34019;SDS011;20895;51.034;3.742;2022-12-18T07:45:58;32.08;;;19.50;;
34019;SDS011;20895;51.034;3.742;2022-12-18T07:48:24;33.13;;;18.17;;
34019;SDS011;20895;51.034;3.742;2022-12-18T07:50:49;30.90;;;19.10;;
34019;SDS011;20895;51.034;3.742;2022-12-18T07:53:14;30.48;;;18.15;;
34019;SDS011;20895;51.034;3.742;2022-12-18T07:55:40;32.55;;;18.67;;
34019;SDS011;20895;51.034;3.742;2022-12-18T07:58:06;29.13;;;16.92;;
34019;SDS011;20895;51.034;3.742;2022-12-18T08:00:31;30.17;;;17.98;;
34019;SDS011;20895;51.034;3.742;2022-12-18T08:02:57;29.73;;;17.20;;
34019;SDS011;20895;51.034;3.742;2022-12-18T08:05:22;33.67;;;19.58;;
34019;SDS011;20895;51.034;3.742;2022-12-18T08:07:47;30.40;;;18.85;;
34019;SDS011;20895;51.034;3.742;2022-12-18T08:10:12;33.58;;;18.90;;
34019;SDS011;20895;51.034;3.742;2022-12-18T08:12:38;28.15;;;17.85;;
34019;SDS011;20895;51.034;3.742;2022-12-18T08:15:03;31.95;;;17.83;;
34019;SDS011;20895;51.034;3.742;2022-12-18T08:17:29;28.17;;;16.42;;
34019;SDS011;20895;51.034;3.742;2022-12-18T08:19:54;27.05;;;17.40;;
34019;SDS011;20895;51.034;3.742;2022-12-18T08:22:19;28.55;;;17.10;;
34019;SDS011;20895;51.034;3.742;2022-12-18T08:24:44;31.63;;;18.23;;
34019;SDS011;20895;51.034;3.742;2022-12-18T08:27:13;28.52;;;17.45;;
34019;SDS011;20895;51.034;3.742;2022-12-18T08:29:38;30.05;;;16.15;;
34019;SDS011;20895;51.034;3.742;2022-12-18T08:32:03;32.15;;;18.25;;
34019;SDS011;20895;51.034;3.742;2022-12-18T08:34:28;31.73;;;16.73;;
34019;SDS011;20895;51.034;3.742;2022-12-18T08:36:54;26.58;;;16.70;;
34019;SDS011;20895;51.034;3.742;2022-12-18T08:39:19;28.98;;;16.55;;
34019;SDS011;20895;51.034;3.742;2022-12-18T08:41:44;28.95;;;16.67;;
34019;SDS011;20895;51.034;3.742;2022-12-18T08:44:29;27.77;;;16.50;;
34019;SDS011;20895;51.034;3.742;2022-12-18T08:47:07;28.48;;;17.33;;
34019;SDS011;20895;51.034;3.742;2022-12-18T08:49:33;29.02;;;16.88;;
34019;SDS011;20895;51.034;3.742;2022-12-18T08:51:58;25.38;;;14.30;;
34019;SDS011;20895;51.034;3.742;2022-12-18T08:54:23;25.73;;;15.82;;
34019;SDS011;20895;51.034;3.742;2022-12-18T08:56:49;25.95;;;15.63;;
34019;SDS011;20895;51.034;3.742;2022-12-18T08:59:17;26.55;;;15.57;;
34019;SDS011;20895;51.034;3.742;2022-12-18T09:01:43;28.70;;;16.95;;
34019;SDS011;20895;51.034;3.742;2022-12-18T09:04:11;26.85;;;15.40;;
34019;SDS011;20895;51.034;3.742;2022-12-18T09:06:37;28.23;;;16.00;;
34019;SDS011;20895;51.034;3.742;2022-12-18T09:09:02;24.77;;;15.27;;
34019;SDS011;20895;51.034;3.742;2022-12-18T09:11:28;21.58;;;13.98;;
34019;SDS011;20895;51.034;3.742;2022-12-18T09:13:54;24.10;;;13.98;;
34019;SDS011;20895;51.034;3.742;2022-12-18T09:16:20;37.25;;;21.75;;
34019;SDS011;20895;51.034;3.742;2022-12-18T09:18:49;23.25;;;15.05;;
34019;SDS011;20895;51.034;3.742;2022-12-18T09:21:16;23.13;;;15.63;;
34019;SDS011;20895;51.034;3.742;2022-12-18T09:23:41;25.75;;;14.55;;
34019;SDS011;20895;51.034;3.742;2022-12-18T09:26:07;21.38;;;13.43;;
34019;SDS011;20895;51.034;3.742;2022-12-18T09:28:32;27.55;;;15.60;;
34019;SDS011;20895;51.034;3.742;2022-12-18T09:30:57;22.25;;;14.85;;
34019;SDS011;20895;51.034;3.742;2022-12-18T09:33:23;23.45;;;13.73;;
34019;SDS011;20895;51.034;3.742;2022-12-18T09:35:48;29.17;;;15.50;;
34019;SDS011;20895;51.034;3.742;2022-12-18T09:38:15;22.48;;;15.07;;
34019;SDS011;20895;51.034;3.742;2022-12-18T09:40:45;20.00;;;12.68;;
34019;SDS011;20895;51.034;3.742;2022-12-18T09:43:14;22.05;;;13.63;;
34019;SDS011;20895;51.034;3.742;2022-12-18T09:45:42;20.02;;;13.52;;
34019;SDS011;20895;51.034;3.742;2022-12-18T09:48:19;21.75;;;14.32;;
34019;SDS011;20895;51.034;3.742;2022-12-18T09:50:45;19.05;;;12.35;;
34019;SDS011;20895;51.034;3.742;2022-12-18T09:53:19;21.15;;;14.15;;
34019;SDS011;20895;51.034;3.742;2022-12-18T09:55:45;24.25;;;15.25;;
34019;SDS011;20895;51.034;3.742;2022-12-18T10:00:56;20.23;;;12.73;;
34019;SDS011;20895;51.034;3.742;2022-12-18T10:03:21;19.02;;;12.00;;
34019;SDS011;20895;51.034;3.742;2022-12-18T10:06:03;23.60;;;15.43;;
34019;SDS011;20895;51.034;3.742;2022-12-18T10:08:37;24.02;;;14.13;;
34019;SDS011;20895;51.034;3.742;2022-12-18T10:13:45;22.38;;;15.50;;
34019;SDS011;20895;51.034;3.742;2022-12-18T10:16:13;22.17;;;15.02;;
34019;SDS011;20895;51.034;3.742;2022-12-18T10:21:13;22.20;;;14.10;;
34019;SDS011;20895;51.034;3.742;2022-12-18T10:23:46;25.98;;;15.35;;
34019;SDS011;20895;51.034;3.742;2022-12-18T10:26:13;21.10;;;15.18;;
34019;SDS011;20895;51.034;3.742;2022-12-18T10:28:39;19.70;;;13.93;;
34019;SDS011;20895;51.034;3.742;2022-12-18T10:31:05;21.60;;;14.27;;
34019;SDS011;20895;51.034;3.742;2022-12-18T10:33:32;21.55;;;13.82;;
34019;SDS011;20895;51.034;3.742;2022-12-18T10:35:57;20.80;;;14.07;;
34019;SDS011;20895;51.034;3.742;2022-12-18T10:38:24;22.23;;;14.13;;
34019;SDS011;20895;51.034;3.742;2022-12-18T10:43:15;22.17;;;14.73;;
34019;SDS011;20895;51.034;3.742;2022-12-18T10:45:41;26.77;;;15.48;;
34019;SDS011;20895;51.034;3.742;2022-12-18T10:48:19;21.98;;;14.80;;
34019;SDS011;20895;51.034;3.742;2022-12-18T10:50:46;23.33;;;14.80;;
34019;SDS011;20895;51.034;3.742;2022-12-18T10:53:13;21.50;;;15.23;;
34019;SDS011;20895;51.034;3.742;2022-12-18T10:55:39;22.33;;;14.23;;
34019;SDS011;20895;51.034;3.742;2022-12-18T10:58:16;21.40;;;15.25;;
34019;SDS011;20895;51.034;3.742;2022-12-18T11:00:42;22.80;;;15.70;;
34019;SDS011;20895;51.034;3.742;2022-12-18T11:03:28;24.50;;;16.42;;
34019;SDS011;20895;51.034;3.742;2022-12-18T11:06:01;26.35;;;17.10;;
34019;SDS011;20895;51.034;3.742;2022-12-18T11:08:26;25.65;;;15.35;;
34019;SDS011;20895;51.034;3.742;2022-12-18T11:10:52;28.90;;;21.95;;
34019;SDS011;20895;51.034;3.742;2022-12-18T11:13:18;24.30;;;16.15;;
34019;SDS011;20895;51.034;3.742;2022-12-18T11:15:44;25.10;;;15.73;;
34019;SDS011;20895;51.034;3.742;2022-12-18T11:18:30;22.48;;;16.15;;
34019;SDS011;20895;51.034;3.742;2022-12-18T11:20:58;24.92;;;16.98;;
34019;SDS011;20895;51.034;3.742;2022-12-18T11:23:24;25.50;;;16.98;;
34019;SDS011;20895;51.034;3.742;2022-12-18T11:25:52;23.90;;;16.55;;
34019;SDS011;20895;51.034;3.742;2022-12-18T11:33:42;22.27;;;16.10;;
34019;SDS011;20895;51.034;3.742;2022-12-18T11:36:09;23.33;;;15.93;;
34019;SDS011;20895;51.034;3.742;2022-12-18T11:38:36;25.98;;;16.02;;
34019;SDS011;20895;51.034;3.742;2022-12-18T11:41:04;19.70;;;12.75;;
34019;SDS011;20895;51.034;3.742;2022-12-18T11:46:10;20.80;;;12.63;;
34019;SDS011;20895;51.034;3.742;2022-12-18T11:48:52;18.95;;;12.20;;
34019;SDS011;20895;51.034;3.742;2022-12-18T11:51:29;18.10;;;11.70;;
34019;SDS011;20895;51.034;3.742;2022-12-18T11:53:57;20.48;;;11.40;;
34019;SDS011;20895;51.034;3.742;2022-12-18T11:56:36;20.33;;;12.10;;
34019;SDS011;20895;51.034;3.742;2022-12-18T11:59:16;20.13;;;11.57;;
34019;SDS011;20895;51.034;3.742;2022-12-18T12:01:51;20.67;;;13.48;;
34019;SDS011;20895;51.034;3.742;2022-12-18T12:04:39;23.50;;;14.52;;
34019;SDS011;20895;51.034;3.742;2022-12-18T12:12:34;22.05;;;13.60;;
34019;SDS011;20895;51.034;3.742;2022-12-18T12:18:01;20.67;;;13.32;;
34019;SDS011;20895;51.034;3.742;2022-12-18T12:23:13;20.83;;;13.23;;
34019;SDS011;20895;51.034;3.742;2022-12-18T12:25:43;20.40;;;14.95;;
34019;SDS011;20895;51.034;3.742;2022-12-18T12:28:27;27.67;;;15.18;;
34019;SDS011;20895;51.034;3.742;2022-12-18T12:31:19;26.98;;;16.15;;
34019;SDS011;20895;51.034;3.742;2022-12-18T12:36:35;25.45;;;16.17;;
34019;SDS011;20895;51.034;3.742;2022-12-18T12:39:02;24.60;;;15.38;;
34019;SDS011;20895;51.034;3.742;2022-12-18T12:41:30;26.63;;;15.88;;
34019;SDS011;20895;51.034;3.742;2022-12-18T12:44:20;24.20;;;16.83;;
34019;SDS011;20895;51.034;3.742;2022-12-18T12:46:47;26.40;;;16.35;;
34019;SDS011;20895;51.034;3.742;2022-12-18T12:49:17;27.33;;;17.30;;
34019;SDS011;20895;51.034;3.742;2022-12-18T12:51:45;23.60;;;14.80;;
34019;SDS011;20895;51.034;3.742;2022-12-18T12:54:15;27.85;;;17.48;;
34019;SDS011;20895;51.034;3.742;2022-12-18T12:59:16;25.77;;;14.90;;
34019;SDS011;20895;51.034;3.742;2022-12-18T13:09:09;26.20;;;17.75;;
34019;SDS011;20895;51.034;3.742;2022-12-18T13:11:41;21.33;;;14.90;;
34019;SDS011;20895;51.034;3.742;2022-12-18T13:14:30;34.22;;;20.70;;
34019;SDS011;20895;51.034;3.742;2022-12-18T13:17:13;27.05;;;17.48;;
34019;SDS011;20895;51.034;3.742;2022-12-18T13:19:39;27.40;;;18.73;;
34019;SDS011;20895;51.034;3.742;2022-12-18T13:22:04;25.20;;;16.65;;
34019;SDS011;20895;51.034;3.742;2022-12-18T13:24:44;30.98;;;19.73;;
34019;SDS011;20895;51.034;3.742;2022-12-18T13:29:53;23.67;;;14.88;;
34019;SDS011;20895;51.034;3.742;2022-12-18T13:32:19;23.95;;;15.27;;
34019;SDS011;20895;51.034;3.742;2022-12-18T13:34:45;18.80;;;11.23;;
34019;SDS011;20895;51.034;3.742;2022-12-18T13:39:54;24.80;;;16.67;;
34019;SDS011;20895;51.034;3.742;2022-12-18T13:48:02;32.63;;;18.27;;
34019;SDS011;20895;51.034;3.742;2022-12-18T13:50:27;26.73;;;16.27;;
34019;SDS011;20895;51.034;3.742;2022-12-18T13:52:52;32.92;;;17.80;;
34019;SDS011;20895;51.034;3.742;2022-12-18T13:55:19;28.20;;;19.67;;
34019;SDS011;20895;51.034;3.742;2022-12-18T13:57:45;34.70;;;19.05;;
34019;SDS011;20895;51.034;3.742;2022-12-18T14:00:23;28.50;;;17.15;;
34019;SDS011;20895;51.034;3.742;2022-12-18T14:02:49;35.63;;;21.45;;
34019;SDS011;20895;51.034;3.742;2022-12-18T14:05:21;31.92;;;20.95;;
34019;SDS011;20895;51.034;3.742;2022-12-18T14:07:47;29.30;;;17.83;;
34019;SDS011;20895;51.034;3.742;2022-12-18T14:10:13;29.80;;;18.08;;
34019;SDS011;20895;51.034;3.742;2022-12-18T14:12:40;30.42;;;19.00;;
34019;SDS011;20895;51.034;3.742;2022-12-18T14:15:31;29.42;;;16.65;;
34019;SDS011;20895;51.034;3.742;2022-12-18T14:17:59;26.13;;;14.55;;
34019;SDS011;20895;51.034;3.742;2022-12-18T14:20:25;29.70;;;19.25;;
34019;SDS011;20895;51.034;3.742;2022-12-18T14:22:50;33.78;;;19.63;;
34019;SDS011;20895;51.034;3.742;2022-12-18T14:25:20;31.80;;;18.02;;
34019;SDS011;20895;51.034;3.742;2022-12-18T14:28:30;30.52;;;19.35;;
34019;SDS011;20895;51.034;3.742;2022-12-18T14:35:34;29.95;;;18.48;;
34019;SDS011;20895;51.034;3.742;2022-12-18T14:38:20;32.13;;;18.73;;
34019;SDS011;20895;51.034;3.742;2022-12-18T14:40:47;29.27;;;18.52;;
34019;SDS011;20895;51.034;3.742;2022-12-18T14:43:12;28.70;;;17.08;;
34019;SDS011;20895;51.034;3.742;2022-12-18T14:45:39;29.38;;;18.42;;
34019;SDS011;20895;51.034;3.742;2022-12-18T14:50:40;29.95;;;17.75;;
34019;SDS011;20895;51.034;3.742;2022-12-18T14:53:05;31.58;;;18.10;;
34019;SDS011;20895;51.034;3.742;2022-12-18T14:55:30;29.65;;;19.65;;
34019;SDS011;20895;51.034;3.742;2022-12-18T14:57:56;22.75;;;13.25;;
34019;SDS011;20895;51.034;3.742;2022-12-18T15:00:22;29.67;;;17.17;;
34019;SDS011;20895;51.034;3.742;2022-12-18T15:02:57;27.77;;;16.00;;
34019;SDS011;20895;51.034;3.742;2022-12-18T15:05:30;31.95;;;18.10;;
34019;SDS011;20895;51.034;3.742;2022-12-18T15:07:56;30.52;;;18.20;;
34019;SDS011;20895;51.034;3.742;2022-12-18T15:10:23;29.27;;;16.52;;
34019;SDS011;20895;51.034;3.742;2022-12-18T15:18:01;30.70;;;18.05;;
34019;SDS011;20895;51.034;3.742;2022-12-18T15:20:27;30.70;;;19.52;;
34019;SDS011;20895;51.034;3.742;2022-12-18T15:22:52;34.10;;;16.67;;
34019;SDS011;20895;51.034;3.742;2022-12-18T15:25:22;32.67;;;19.25;;
34019;SDS011;20895;51.034;3.742;2022-12-18T15:27:50;36.25;;;20.10;;
34019;SDS011;20895;51.034;3.742;2022-12-18T15:30:17;35.35;;;19.42;;
34019;SDS011;20895;51.034;3.742;2022-12-18T15:32:43;34.10;;;19.42;;
34019;SDS011;20895;51.034;3.742;2022-12-18T15:37:33;36.60;;;21.83;;
34019;SDS011;20895;51.034;3.742;2022-12-18T15:39:58;35.22;;;20.30;;
34019;SDS011;20895;51.034;3.742;2022-12-18T15:42:24;34.15;;;18.50;;
34019;SDS011;20895;51.034;3.742;2022-12-18T15:45:11;28.98;;;17.70;;
34019;SDS011;20895;51.034;3.742;2022-12-18T15:47:36;37.47;;;17.85;;
34019;SDS011;20895;51.034;3.742;2022-12-18T15:50:01;34.17;;;18.48;;
34019;SDS011;20895;51.034;3.742;2022-12-18T15:52:27;24.77;;;12.52;;
34019;SDS011;20895;51.034;3.742;2022-12-18T15:54:52;31.15;;;17.55;;
34019;SDS011;20895;51.034;3.742;2022-12-18T15:57:36;32.53;;;17.67;;
34019;SDS011;20895;51.034;3.742;2022-12-18T16:00:02;29.90;;;17.88;;
34019;SDS011;20895;51.034;3.742;2022-12-18T16:02:27;31.33;;;18.13;;